Wednesday, December 19, 2018, 4:08 PM GMT
Back to Local

CWIS, Charlevoix CS , Que.

Location: , , Canada Lat: 47.283
Local Time: 4:08 PM GMT (16:08 GMT) Lon: -70.633
Time Zone: GMT Elev: 2358 ft

Show me the last for .
Show Coded

Time T Td Feel RH Dir Speed Gust Alt SLP Vis Weather Sky Remarks
2018-12-19 15:00 18 6 12 59 310° 3 - - 29.89 0 None
2018-12-19 14:00 17 5 10 59 310° 5 - - 29.89 0 None
2018-12-19 13:00 16 6 10 63 330° 3 - - 29.88 0 None
2018-12-19 12:00 13 6 - 70 290° 2 - - 29.88 0 None
2018-12-19 11:00 14 5 5 65 320° 6 - - 29.88 0 None
2018-12-19 10:00 15 4 5 62 320° 7 - - 29.86 0 None
2018-12-19 09:00 12 4 5 69 360° 3 - - 29.87 0 None
2018-12-19 08:00 11 4 - 72 310° 2 - - 29.86 0 None
2018-12-19 07:00 11 6 5 76 60° 3 - - 29.85 0 None
2018-12-19 06:00 11 5 2 73 330° 6 - - 29.83 0 None
2018-12-19 05:00 11 5 5 75 340° 3 - - 29.83 0 None
2018-12-19 04:00 10 5 -1 78 310° 7 - - 29.85 0 None
2018-12-19 03:00 10 4 0 78 330° 6 - - 29.84 0 None
2018-12-19 02:00 10 5 -8 80 320° 10 17 - 29.83 0 Peak wind: 21 mph (19 kts) from 320° at 48 min
2018-12-19 01:00 11 6 4 81 300° 3 - - 29.85 0 Peak wind: 20 mph (18 kts) from 310° at 03 min
2018-12-19 00:00 12 6 -7 77 320° 12 22 - 29.83 0 Peak wind: 28 mph (25 kts) from 320° at 09 min
2018-12-18 23:00 13 7 -5 76 310° 10 21 - 29.83 0 Peak wind: 20 mph (18 kts) from 300° at 58 min
2018-12-18 22:00 14 8 -4 76 320° 9 20 - 29.82 0 Peak wind: 20 mph (18 kts) from 310° at 49 min
2018-12-18 21:00 14 9 5 78 310° 6 - - 29.79 0 Peak wind: 19 mph (17 kts) from 320° at 39 min
2018-12-18 20:00 14 9 -4 78 320° 12 22 - 29.78 0 Peak wind: 21 mph (19 kts) from 310° at 56 min
2018-12-18 18:00 15 8 -4 73 330° 12 24 - 29.70 0 Peak wind: 28 mph (25 kts) from 340° at 11 min
2018-12-18 17:00 17 8 0 68 320° 10 21 - 29.70 0 Peak wind: 25 mph (22 kts) from 330° at 22 min

Support USWX by starting your Amazon purchase here.